F/V Attalaya Berria — FHCB — position and weather

sailwx.info

Track history (hours):
 
Tides and Currents Weather Stations Pressure Air Temp Water Temp Dewpoint Dewpoint Depression Visibility Wind Speed Wind Dir Waves Ship Positions

F/V Attalaya Berria

Last reported at 2016-Jun-29 03:23 UTC. Time now 2016-Jun-29 03:58 UTC.
Position N 43°24' W 001°40'.

Length 26 m.

Type: Fishing. MMSI: 228315000.

Date/timePositionNaut miles runAvg speedWind from/ knotsBaromVisibWave heightAir tempDewpointWater temp
2016-Jun-29 03:23N 43°24' W 001°40'0 0.0
2016-Jun-29 00:30N 43°24' W 001°40'0 0.0
2016-Jun-28 19:33N 43°24' W 001°40'0 0.0
2016-Jun-28 03:30N 43°24' W 001°40'0 0.1
2016-Jun-28 02:14N 43°24' W 001°40'0 0.1
2016-Jun-28 00:25N 43°24' W 001°41'0 0.0
2016-Jun-27 23:22N 43°24' W 001°41'0 0.0
2016-Jun-27 21:26N 43°24' W 001°41'0 0.0
2016-Jun-27 20:29N 43°24' W 001°41'0 0.0
2016-Jun-27 18:28N 43°24' W 001°41'2 1.2
2016-Jun-27 16:33N 43°25' W 001°43'1 0.1
2016-Jun-27 04:17N 43°25' W 001°42'2 2.2
2016-Jun-27 03:28N 43°24' W 001°40'0 0.1
2016-Jun-27 02:21N 43°24' W 001°40'0 0.2
2016-Jun-27 01:33N 43°24' W 001°41'0 0.0
2016-Jun-27 00:33N 43°24' W 001°41'0 0.0
2016-Jun-26 23:33N 43°24' W 001°41'0 0.0
2016-Jun-26 22:24N 43°24' W 001°41'0 0.0
2016-Jun-26 21:21N 43°24' W 001°41'1 0.1
2016-Jun-26 16:33N 43°24' W 001°41'5 0.4
2016-Jun-26 04:14N 43°23' W 001°47'0 0.1
2016-Jun-26 03:32N 43°23' W 001°47'9 8.0
2016-Jun-26 02:24N 43°30' W 001°39'3 1.7
2016-Jun-26 00:26N 43°32' W 001°35'6 6.7
2016-Jun-25 23:33N 43°27' W 001°39'1 1.1
2016-Jun-25 22:33N 43°27' W 001°37'1 0.6
2016-Jun-25 21:33N 43°27' W 001°37'4 3.7
2016-Jun-25 20:25N 43°24' W 001°40'5 0.3
2016-Jun-25 05:31N 43°22' W 001°47'7 6.7
2016-Jun-25 04:31N 43°28' W 001°43'6 6.6
2016-Jun-25 03:34N 43°31' W 001°35'11 0.5
2016-Jun-24 04:33N 43°25' W 001°47'2 2.3
2016-Jun-24 03:33N 43°23' W 001°47'0 0.2
2016-Jun-24 02:10N 43°23' W 001°47'  
2016-Jun-21 04:19N 43°22' W 001°47'5 6.3
2016-Jun-21 03:33N 43°24' W 001°41'2 2.1
2016-Jun-21 02:33N 43°26' W 001°42'2 1.7
2016-Jun-21 01:33N 43°28' W 001°42'1 0.7
2016-Jun-21 00:33N 43°28' W 001°41'0 0.3
2016-Jun-20 23:33N 43°28' W 001°41'0 0.3
2016-Jun-20 22:33N 43°28' W 001°41'3 2.7
2016-Jun-20 21:33N 43°29' W 001°38'2 1.8
2016-Jun-20 20:33N 43°30' W 001°36'4 4.4
2016-Jun-20 19:33N 43°28' W 001°41'7 0.4
2016-Jun-20 03:07N 43°22' W 001°47'4 7.2
2016-Jun-20 02:33N 43°26' W 001°44'3 3.3
2016-Jun-20 01:32N 43°28' W 001°41'6 5.8
2016-Jun-20 00:33N 43°31' W 001°34'1 1.5
2016-Jun-19 23:34N 43°30' W 001°36'2 2.0
2016-Jun-19 22:33N 43°29' W 001°38'2 1.9
2016-Jun-19 21:34N 43°30' W 001°36'0 0.1
2016-Jun-19 20:34N 43°30' W 001°36'6 5.6
2016-Jun-19 19:33N 43°27' W 001°42'  
Track history (hours):
 
Tides and Currents Weather Stations Pressure Air Temp Water Temp Dewpoint Dewpoint Depression Visibility Wind Speed Wind Dir Waves Ship Positions

F/V Attalaya Berria

Last reported at 2016-Jun-29 03:23 UTC. Time now 2016-Jun-29 03:58 UTC.
Position N 43°24' W 001°40'.

Length 26 m.

Type: Fishing. MMSI: 228315000.

Date/timePositionNaut miles runAvg speedWind from/ knotsBaromVisibWave heightAir tempDewpointWater temp
2016-Jun-29 03:23N 43°24' W 001°40'0 0.0
2016-Jun-29 00:30N 43°24' W 001°40'0 0.0
2016-Jun-28 19:33N 43°24' W 001°40'0 0.0
2016-Jun-28 03:30N 43°24' W 001°40'0 0.1
2016-Jun-28 02:14N 43°24' W 001°40'0 0.1
2016-Jun-28 00:25N 43°24' W 001°41'0 0.0
2016-Jun-27 23:22N 43°24' W 001°41'0 0.0
2016-Jun-27 21:26N 43°24' W 001°41'0 0.0
2016-Jun-27 20:29N 43°24' W 001°41'0 0.0
2016-Jun-27 18:28N 43°24' W 001°41'2 1.2
2016-Jun-27 16:33N 43°25' W 001°43'1 0.1
2016-Jun-27 04:17N 43°25' W 001°42'2 2.2
2016-Jun-27 03:28N 43°24' W 001°40'0 0.1
2016-Jun-27 02:21N 43°24' W 001°40'0 0.2
2016-Jun-27 01:33N 43°24' W 001°41'0 0.0
2016-Jun-27 00:33N 43°24' W 001°41'0 0.0
2016-Jun-26 23:33N 43°24' W 001°41'0 0.0
2016-Jun-26 22:24N 43°24' W 001°41'0 0.0
2016-Jun-26 21:21N 43°24' W 001°41'1 0.1
2016-Jun-26 16:33N 43°24' W 001°41'5 0.4
2016-Jun-26 04:14N 43°23' W 001°47'0 0.1
2016-Jun-26 03:32N 43°23' W 001°47'9 8.0
2016-Jun-26 02:24N 43°30' W 001°39'3 1.7
2016-Jun-26 00:26N 43°32' W 001°35'6 6.7
2016-Jun-25 23:33N 43°27' W 001°39'1 1.1
2016-Jun-25 22:33N 43°27' W 001°37'1 0.6
2016-Jun-25 21:33N 43°27' W 001°37'4 3.7
2016-Jun-25 20:25N 43°24' W 001°40'5 0.3
2016-Jun-25 05:31N 43°22' W 001°47'7 6.7
2016-Jun-25 04:31N 43°28' W 001°43'6 6.6
2016-Jun-25 03:34N 43°31' W 001°35'11 0.5
2016-Jun-24 04:33N 43°25' W 001°47'2 2.3
2016-Jun-24 03:33N 43°23' W 001°47'0 0.2
2016-Jun-24 02:10N 43°23' W 001°47'  
2016-Jun-21 04:19N 43°22' W 001°47'5 6.3
2016-Jun-21 03:33N 43°24' W 001°41'2 2.1
2016-Jun-21 02:33N 43°26' W 001°42'2 1.7
2016-Jun-21 01:33N 43°28' W 001°42'1 0.7
2016-Jun-21 00:33N 43°28' W 001°41'0 0.3
2016-Jun-20 23:33N 43°28' W 001°41'0 0.3
2016-Jun-20 22:33N 43°28' W 001°41'3 2.7
2016-Jun-20 21:33N 43°29' W 001°38'2 1.8
2016-Jun-20 20:33N 43°30' W 001°36'4 4.4
2016-Jun-20 19:33N 43°28' W 001°41'7 0.4
2016-Jun-20 03:07N 43°22' W 001°47'4 7.2
2016-Jun-20 02:33N 43°26' W 001°44'3 3.3
2016-Jun-20 01:32N 43°28' W 001°41'6 5.8
2016-Jun-20 00:33N 43°31' W 001°34'1 1.5
2016-Jun-19 23:34N 43°30' W 001°36'2 2.0
2016-Jun-19 22:33N 43°29' W 001°38'2 1.9
2016-Jun-19 21:34N 43°30' W 001°36'0 0.1
2016-Jun-19 20:34N 43°30' W 001°36'6 5.6
2016-Jun-19 19:33N 43°27' W 001°42'  

Dump ship's entire track history